sensor_id;sensor_type;location;lat;lon;timestamp;P1;durP1;ratioP1;P2;durP2;ratioP2
49828;SDS011;35723;51.194;5.112;2024-03-08T00:00:18;52.55;;;24.63;;
49828;SDS011;35723;51.194;5.112;2024-03-08T00:02:45;55.67;;;24.35;;
49828;SDS011;35723;51.194;5.112;2024-03-08T00:05:11;51.13;;;23.58;;
49828;SDS011;35723;51.194;5.112;2024-03-08T00:07:38;49.33;;;23.10;;
49828;SDS011;35723;51.194;5.112;2024-03-08T00:10:08;50.63;;;24.80;;
49828;SDS011;35723;51.194;5.112;2024-03-08T00:12:36;49.42;;;23.83;;
49828;SDS011;35723;51.194;5.112;2024-03-08T00:17:51;46.85;;;23.48;;
49828;SDS011;35723;51.194;5.112;2024-03-08T00:20:17;50.38;;;23.30;;
49828;SDS011;35723;51.194;5.112;2024-03-08T00:22:45;50.30;;;23.17;;
49828;SDS011;35723;51.194;5.112;2024-03-08T00:25:11;49.80;;;24.05;;
49828;SDS011;35723;51.194;5.112;2024-03-08T00:27:37;49.65;;;24.27;;
49828;SDS011;35723;51.194;5.112;2024-03-08T00:30:03;47.40;;;22.85;;
49828;SDS011;35723;51.194;5.112;2024-03-08T00:32:32;45.80;;;22.83;;
49828;SDS011;35723;51.194;5.112;2024-03-08T00:34:58;52.47;;;24.65;;
49828;SDS011;35723;51.194;5.112;2024-03-08T00:40:46;45.80;;;22.40;;
49828;SDS011;35723;51.194;5.112;2024-03-08T00:43:12;43.33;;;22.00;;
49828;SDS011;35723;51.194;5.112;2024-03-08T00:45:38;47.72;;;22.98;;
49828;SDS011;35723;51.194;5.112;2024-03-08T00:48:12;47.78;;;24.23;;
49828;SDS011;35723;51.194;5.112;2024-03-08T00:50:37;46.13;;;23.30;;
49828;SDS011;35723;51.194;5.112;2024-03-08T00:53:03;46.50;;;24.10;;
49828;SDS011;35723;51.194;5.112;2024-03-08T00:55:29;45.17;;;23.52;;
49828;SDS011;35723;51.194;5.112;2024-03-08T00:57:55;46.50;;;22.15;;
49828;SDS011;35723;51.194;5.112;2024-03-08T01:00:21;44.00;;;22.65;;
49828;SDS011;35723;51.194;5.112;2024-03-08T01:02:46;42.55;;;22.52;;
49828;SDS011;35723;51.194;5.112;2024-03-08T01:05:13;45.50;;;23.35;;
49828;SDS011;35723;51.194;5.112;2024-03-08T01:07:38;45.78;;;22.63;;
49828;SDS011;35723;51.194;5.112;2024-03-08T01:10:04;45.78;;;21.95;;
49828;SDS011;35723;51.194;5.112;2024-03-08T01:12:36;43.67;;;23.87;;
49828;SDS011;35723;51.194;5.112;2024-03-08T01:15:02;43.60;;;21.85;;
49828;SDS011;35723;51.194;5.112;2024-03-08T01:17:36;44.47;;;22.83;;
49828;SDS011;35723;51.194;5.112;2024-03-08T01:20:03;43.35;;;22.80;;
49828;SDS011;35723;51.194;5.112;2024-03-08T01:22:29;49.10;;;22.45;;
49828;SDS011;35723;51.194;5.112;2024-03-08T01:24:56;43.88;;;22.88;;
49828;SDS011;35723;51.194;5.112;2024-03-08T01:27:22;45.92;;;22.95;;
49828;SDS011;35723;51.194;5.112;2024-03-08T01:29:47;44.53;;;22.48;;
49828;SDS011;35723;51.194;5.112;2024-03-08T01:32:13;42.65;;;22.67;;
49828;SDS011;35723;51.194;5.112;2024-03-08T01:34:40;42.50;;;22.92;;
49828;SDS011;35723;51.194;5.112;2024-03-08T01:37:05;42.53;;;23.95;;
49828;SDS011;35723;51.194;5.112;2024-03-08T01:39:31;43.15;;;23.10;;
49828;SDS011;35723;51.194;5.112;2024-03-08T01:41:57;42.45;;;21.90;;
49828;SDS011;35723;51.194;5.112;2024-03-08T01:44:23;43.40;;;23.00;;
49828;SDS011;35723;51.194;5.112;2024-03-08T01:46:49;41.58;;;21.63;;
49828;SDS011;35723;51.194;5.112;2024-03-08T01:49:17;42.65;;;22.27;;
49828;SDS011;35723;51.194;5.112;2024-03-08T01:51:45;40.55;;;21.80;;
49828;SDS011;35723;51.194;5.112;2024-03-08T01:54:13;46.47;;;22.52;;
49828;SDS011;35723;51.194;5.112;2024-03-08T01:56:41;42.00;;;22.25;;
49828;SDS011;35723;51.194;5.112;2024-03-08T01:59:07;42.38;;;22.35;;
49828;SDS011;35723;51.194;5.112;2024-03-08T02:01:33;41.40;;;22.80;;
49828;SDS011;35723;51.194;5.112;2024-03-08T02:03:59;43.17;;;22.35;;
49828;SDS011;35723;51.194;5.112;2024-03-08T02:06:25;39.60;;;22.05;;
49828;SDS011;35723;51.194;5.112;2024-03-08T02:08:53;42.17;;;22.80;;
49828;SDS011;35723;51.194;5.112;2024-03-08T02:11:19;44.08;;;22.35;;
49828;SDS011;35723;51.194;5.112;2024-03-08T02:13:45;43.40;;;22.25;;
49828;SDS011;35723;51.194;5.112;2024-03-08T02:16:11;43.97;;;22.95;;
49828;SDS011;35723;51.194;5.112;2024-03-08T02:18:37;41.63;;;22.83;;
49828;SDS011;35723;51.194;5.112;2024-03-08T02:21:04;43.60;;;22.38;;
49828;SDS011;35723;51.194;5.112;2024-03-08T02:23:31;41.08;;;21.92;;
49828;SDS011;35723;51.194;5.112;2024-03-08T02:25:58;42.63;;;23.20;;
49828;SDS011;35723;51.194;5.112;2024-03-08T02:28:24;43.97;;;22.88;;
49828;SDS011;35723;51.194;5.112;2024-03-08T02:30:54;42.78;;;22.00;;
49828;SDS011;35723;51.194;5.112;2024-03-08T02:33:20;42.60;;;22.13;;
49828;SDS011;35723;51.194;5.112;2024-03-08T02:35:47;40.25;;;21.77;;
49828;SDS011;35723;51.194;5.112;2024-03-08T02:38:14;43.78;;;23.63;;
49828;SDS011;35723;51.194;5.112;2024-03-08T02:40:42;42.80;;;22.92;;
49828;SDS011;35723;51.194;5.112;2024-03-08T02:43:08;41.53;;;22.65;;
49828;SDS011;35723;51.194;5.112;2024-03-08T02:45:34;41.97;;;22.52;;
49828;SDS011;35723;51.194;5.112;2024-03-08T02:48:01;44.60;;;22.88;;
49828;SDS011;35723;51.194;5.112;2024-03-08T02:50:26;42.90;;;23.08;;
49828;SDS011;35723;51.194;5.112;2024-03-08T02:52:52;44.90;;;21.92;;
49828;SDS011;35723;51.194;5.112;2024-03-08T02:55:18;41.72;;;23.25;;
49828;SDS011;35723;51.194;5.112;2024-03-08T02:57:44;43.40;;;23.58;;
49828;SDS011;35723;51.194;5.112;2024-03-08T03:00:12;42.78;;;23.38;;
49828;SDS011;35723;51.194;5.112;2024-03-08T03:02:38;44.70;;;23.20;;
49828;SDS011;35723;51.194;5.112;2024-03-08T03:05:04;47.25;;;23.55;;
49828;SDS011;35723;51.194;5.112;2024-03-08T03:07:34;43.28;;;23.48;;
49828;SDS011;35723;51.194;5.112;2024-03-08T03:10:00;47.97;;;24.02;;
49828;SDS011;35723;51.194;5.112;2024-03-08T03:12:30;48.10;;;23.40;;
49828;SDS011;35723;51.194;5.112;2024-03-08T03:14:59;44.55;;;22.98;;
49828;SDS011;35723;51.194;5.112;2024-03-08T03:17:25;46.97;;;23.85;;
49828;SDS011;35723;51.194;5.112;2024-03-08T03:19:51;42.17;;;22.67;;
49828;SDS011;35723;51.194;5.112;2024-03-08T03:22:18;48.60;;;24.33;;
49828;SDS011;35723;51.194;5.112;2024-03-08T03:24:44;45.25;;;23.88;;
49828;SDS011;35723;51.194;5.112;2024-03-08T03:27:11;42.42;;;22.98;;
49828;SDS011;35723;51.194;5.112;2024-03-08T03:29:38;42.80;;;22.52;;
49828;SDS011;35723;51.194;5.112;2024-03-08T03:32:05;46.75;;;23.40;;
49828;SDS011;35723;51.194;5.112;2024-03-08T03:34:32;41.92;;;23.27;;
49828;SDS011;35723;51.194;5.112;2024-03-08T03:37:01;42.50;;;22.88;;
49828;SDS011;35723;51.194;5.112;2024-03-08T03:39:28;44.22;;;23.38;;
49828;SDS011;35723;51.194;5.112;2024-03-08T03:41:56;42.80;;;22.90;;
49828;SDS011;35723;51.194;5.112;2024-03-08T03:44:22;47.53;;;24.75;;
49828;SDS011;35723;51.194;5.112;2024-03-08T03:46:48;43.97;;;23.20;;
49828;SDS011;35723;51.194;5.112;2024-03-08T03:49:15;42.97;;;22.77;;
49828;SDS011;35723;51.194;5.112;2024-03-08T03:51:42;47.33;;;23.67;;
49828;SDS011;35723;51.194;5.112;2024-03-08T03:54:09;46.13;;;23.13;;
49828;SDS011;35723;51.194;5.112;2024-03-08T03:56:35;47.30;;;23.73;;
49828;SDS011;35723;51.194;5.112;2024-03-08T04:01:47;41.15;;;22.25;;
49828;SDS011;35723;51.194;5.112;2024-03-08T04:04:14;51.20;;;23.48;;
49828;SDS011;35723;51.194;5.112;2024-03-08T04:06:40;47.25;;;23.08;;
49828;SDS011;35723;51.194;5.112;2024-03-08T04:09:06;43.75;;;22.65;;
49828;SDS011;35723;51.194;5.112;2024-03-08T04:11:32;45.67;;;23.58;;
49828;SDS011;35723;51.194;5.112;2024-03-08T04:13:58;45.08;;;22.23;;
49828;SDS011;35723;51.194;5.112;2024-03-08T04:16:24;47.42;;;24.02;;
49828;SDS011;35723;51.194;5.112;2024-03-08T04:18:50;46.17;;;23.60;;
49828;SDS011;35723;51.194;5.112;2024-03-08T04:21:17;46.35;;;23.58;;
49828;SDS011;35723;51.194;5.112;2024-03-08T04:23:44;45.58;;;23.67;;
49828;SDS011;35723;51.194;5.112;2024-03-08T04:26:10;48.00;;;23.67;;
49828;SDS011;35723;51.194;5.112;2024-03-08T04:28:36;47.67;;;23.30;;
49828;SDS011;35723;51.194;5.112;2024-03-08T04:31:03;41.65;;;21.67;;
49828;SDS011;35723;51.194;5.112;2024-03-08T04:33:29;43.65;;;23.52;;
49828;SDS011;35723;51.194;5.112;2024-03-08T04:35:55;44.75;;;23.02;;
49828;SDS011;35723;51.194;5.112;2024-03-08T04:38:21;47.00;;;23.85;;
49828;SDS011;35723;51.194;5.112;2024-03-08T04:40:47;42.63;;;23.42;;
49828;SDS011;35723;51.194;5.112;2024-03-08T04:43:15;48.40;;;24.15;;
49828;SDS011;35723;51.194;5.112;2024-03-08T04:45:43;47.42;;;24.13;;
49828;SDS011;35723;51.194;5.112;2024-03-08T04:48:09;47.45;;;23.80;;
49828;SDS011;35723;51.194;5.112;2024-03-08T04:50:36;49.53;;;24.88;;
49828;SDS011;35723;51.194;5.112;2024-03-08T04:53:03;45.72;;;23.60;;
49828;SDS011;35723;51.194;5.112;2024-03-08T04:55:29;47.63;;;24.75;;
49828;SDS011;35723;51.194;5.112;2024-03-08T04:57:55;48.70;;;23.63;;
49828;SDS011;35723;51.194;5.112;2024-03-08T05:00:21;49.50;;;24.45;;
49828;SDS011;35723;51.194;5.112;2024-03-08T05:02:46;46.80;;;23.52;;
49828;SDS011;35723;51.194;5.112;2024-03-08T05:05:12;46.53;;;23.83;;
49828;SDS011;35723;51.194;5.112;2024-03-08T05:07:41;44.15;;;24.17;;
49828;SDS011;35723;51.194;5.112;2024-03-08T05:10:08;45.78;;;24.80;;
49828;SDS011;35723;51.194;5.112;2024-03-08T05:12:34;50.65;;;24.58;;
49828;SDS011;35723;51.194;5.112;2024-03-08T05:15:00;48.33;;;24.55;;
49828;SDS011;35723;51.194;5.112;2024-03-08T05:17:25;47.08;;;24.30;;
49828;SDS011;35723;51.194;5.112;2024-03-08T05:19:51;43.25;;;23.25;;
49828;SDS011;35723;51.194;5.112;2024-03-08T05:22:17;44.53;;;24.10;;
49828;SDS011;35723;51.194;5.112;2024-03-08T05:24:43;47.08;;;24.42;;
49828;SDS011;35723;51.194;5.112;2024-03-08T05:27:09;47.60;;;23.33;;
49828;SDS011;35723;51.194;5.112;2024-03-08T05:29:35;47.22;;;22.95;;
49828;SDS011;35723;51.194;5.112;2024-03-08T05:32:02;44.58;;;23.90;;
49828;SDS011;35723;51.194;5.112;2024-03-08T05:34:29;48.78;;;24.08;;
49828;SDS011;35723;51.194;5.112;2024-03-08T05:39:59;46.67;;;23.63;;
49828;SDS011;35723;51.194;5.112;2024-03-08T05:42:24;48.67;;;23.75;;
49828;SDS011;35723;51.194;5.112;2024-03-08T05:44:50;48.35;;;24.83;;
49828;SDS011;35723;51.194;5.112;2024-03-08T05:47:16;46.85;;;24.95;;
49828;SDS011;35723;51.194;5.112;2024-03-08T05:49:43;48.83;;;24.23;;
49828;SDS011;35723;51.194;5.112;2024-03-08T05:52:09;48.72;;;24.73;;
49828;SDS011;35723;51.194;5.112;2024-03-08T05:54:35;47.63;;;25.27;;
49828;SDS011;35723;51.194;5.112;2024-03-08T05:57:00;46.67;;;24.25;;
49828;SDS011;35723;51.194;5.112;2024-03-08T05:59:26;49.28;;;23.88;;
49828;SDS011;35723;51.194;5.112;2024-03-08T06:01:52;47.75;;;24.50;;
49828;SDS011;35723;51.194;5.112;2024-03-08T06:04:17;47.92;;;24.35;;
49828;SDS011;35723;51.194;5.112;2024-03-08T06:06:43;46.35;;;24.75;;
49828;SDS011;35723;51.194;5.112;2024-03-08T06:09:09;47.58;;;23.77;;
49828;SDS011;35723;51.194;5.112;2024-03-08T06:11:39;47.65;;;24.33;;
49828;SDS011;35723;51.194;5.112;2024-03-08T06:14:04;49.53;;;25.13;;
49828;SDS011;35723;51.194;5.112;2024-03-08T06:16:31;50.70;;;24.35;;
49828;SDS011;35723;51.194;5.112;2024-03-08T06:18:58;48.63;;;24.23;;
49828;SDS011;35723;51.194;5.112;2024-03-08T06:21:27;51.67;;;24.83;;
49828;SDS011;35723;51.194;5.112;2024-03-08T06:23:53;49.10;;;24.60;;
49828;SDS011;35723;51.194;5.112;2024-03-08T06:26:28;50.38;;;24.98;;
49828;SDS011;35723;51.194;5.112;2024-03-08T06:28:54;53.28;;;25.63;;
49828;SDS011;35723;51.194;5.112;2024-03-08T06:31:20;48.22;;;24.17;;
49828;SDS011;35723;51.194;5.112;2024-03-08T06:33:46;55.30;;;26.88;;
49828;SDS011;35723;51.194;5.112;2024-03-08T06:36:11;52.72;;;25.15;;
49828;SDS011;35723;51.194;5.112;2024-03-08T06:38:38;49.47;;;24.30;;
49828;SDS011;35723;51.194;5.112;2024-03-08T06:41:10;49.67;;;24.90;;
49828;SDS011;35723;51.194;5.112;2024-03-08T06:46:10;49.28;;;24.35;;
49828;SDS011;35723;51.194;5.112;2024-03-08T06:48:39;50.80;;;24.48;;
49828;SDS011;35723;51.194;5.112;2024-03-08T06:51:05;48.95;;;24.90;;
49828;SDS011;35723;51.194;5.112;2024-03-08T06:53:31;47.08;;;24.70;;
49828;SDS011;35723;51.194;5.112;2024-03-08T06:55:57;47.80;;;24.60;;
49828;SDS011;35723;51.194;5.112;2024-03-08T06:58:23;49.88;;;23.65;;
49828;SDS011;35723;51.194;5.112;2024-03-08T07:00:49;46.45;;;23.90;;
49828;SDS011;35723;51.194;5.112;2024-03-08T07:03:18;47.00;;;23.52;;
49828;SDS011;35723;51.194;5.112;2024-03-08T07:05:44;46.42;;;23.52;;
49828;SDS011;35723;51.194;5.112;2024-03-08T07:08:10;47.60;;;24.45;;
49828;SDS011;35723;51.194;5.112;2024-03-08T07:10:37;46.08;;;24.33;;
49828;SDS011;35723;51.194;5.112;2024-03-08T07:13:04;46.50;;;24.13;;
49828;SDS011;35723;51.194;5.112;2024-03-08T07:15:30;49.72;;;23.33;;
49828;SDS011;35723;51.194;5.112;2024-03-08T07:17:56;45.75;;;22.92;;
49828;SDS011;35723;51.194;5.112;2024-03-08T07:20:21;47.10;;;23.98;;
49828;SDS011;35723;51.194;5.112;2024-03-08T07:22:49;47.83;;;23.98;;
49828;SDS011;35723;51.194;5.112;2024-03-08T07:25:18;47.95;;;24.30;;
49828;SDS011;35723;51.194;5.112;2024-03-08T07:27:52;50.85;;;24.48;;
49828;SDS011;35723;51.194;5.112;2024-03-08T07:33:27;50.58;;;23.23;;
49828;SDS011;35723;51.194;5.112;2024-03-08T07:35:52;45.80;;;22.90;;
49828;SDS011;35723;51.194;5.112;2024-03-08T07:38:18;48.20;;;23.05;;
49828;SDS011;35723;51.194;5.112;2024-03-08T07:40:46;51.65;;;24.88;;
49828;SDS011;35723;51.194;5.112;2024-03-08T07:43:13;46.10;;;23.33;;
49828;SDS011;35723;51.194;5.112;2024-03-08T07:45:39;47.38;;;24.17;;
49828;SDS011;35723;51.194;5.112;2024-03-08T07:48:05;51.60;;;23.85;;
49828;SDS011;35723;51.194;5.112;2024-03-08T07:50:38;47.20;;;24.33;;
49828;SDS011;35723;51.194;5.112;2024-03-08T07:53:04;44.78;;;23.35;;
49828;SDS011;35723;51.194;5.112;2024-03-08T07:55:34;50.10;;;23.50;;
49828;SDS011;35723;51.194;5.112;2024-03-08T07:58:00;47.67;;;23.30;;
49828;SDS011;35723;51.194;5.112;2024-03-08T08:00:26;46.60;;;23.02;;
49828;SDS011;35723;51.194;5.112;2024-03-08T08:02:53;45.90;;;23.02;;
49828;SDS011;35723;51.194;5.112;2024-03-08T08:05:18;45.95;;;23.45;;
49828;SDS011;35723;51.194;5.112;2024-03-08T08:07:45;46.53;;;23.23;;
49828;SDS011;35723;51.194;5.112;2024-03-08T08:10:14;46.58;;;23.10;;
49828;SDS011;35723;51.194;5.112;2024-03-08T08:12:50;47.08;;;23.27;;
49828;SDS011;35723;51.194;5.112;2024-03-08T08:15:19;47.42;;;22.92;;
49828;SDS011;35723;51.194;5.112;2024-03-08T08:17:45;43.03;;;22.65;;
49828;SDS011;35723;51.194;5.112;2024-03-08T08:20:12;45.42;;;22.77;;
49828;SDS011;35723;51.194;5.112;2024-03-08T08:22:38;43.35;;;22.83;;
49828;SDS011;35723;51.194;5.112;2024-03-08T08:25:07;42.95;;;21.75;;
49828;SDS011;35723;51.194;5.112;2024-03-08T08:27:33;42.08;;;22.10;;
49828;SDS011;35723;51.194;5.112;2024-03-08T08:29:58;44.60;;;22.15;;
49828;SDS011;35723;51.194;5.112;2024-03-08T08:32:25;44.40;;;22.17;;
49828;SDS011;35723;51.194;5.112;2024-03-08T08:34:51;43.53;;;21.88;;
49828;SDS011;35723;51.194;5.112;2024-03-08T08:37:17;44.13;;;22.08;;
49828;SDS011;35723;51.194;5.112;2024-03-08T08:39:42;46.53;;;22.35;;
49828;SDS011;35723;51.194;5.112;2024-03-08T08:42:08;44.08;;;22.50;;
49828;SDS011;35723;51.194;5.112;2024-03-08T08:44:34;42.95;;;21.48;;
49828;SDS011;35723;51.194;5.112;2024-03-08T08:47:02;42.83;;;20.88;;
49828;SDS011;35723;51.194;5.112;2024-03-08T08:49:29;44.53;;;20.98;;
49828;SDS011;35723;51.194;5.112;2024-03-08T08:51:55;43.17;;;22.00;;
49828;SDS011;35723;51.194;5.112;2024-03-08T08:54:23;42.30;;;21.60;;
49828;SDS011;35723;51.194;5.112;2024-03-08T08:56:50;42.53;;;22.40;;
49828;SDS011;35723;51.194;5.112;2024-03-08T08:59:16;40.97;;;21.52;;
49828;SDS011;35723;51.194;5.112;2024-03-08T09:01:44;41.10;;;21.58;;
49828;SDS011;35723;51.194;5.112;2024-03-08T09:04:15;42.95;;;21.40;;
49828;SDS011;35723;51.194;5.112;2024-03-08T09:06:41;42.45;;;22.25;;
49828;SDS011;35723;51.194;5.112;2024-03-08T09:09:07;40.72;;;20.85;;
49828;SDS011;35723;51.194;5.112;2024-03-08T09:11:38;42.85;;;21.65;;
49828;SDS011;35723;51.194;5.112;2024-03-08T09:14:07;39.60;;;20.67;;
49828;SDS011;35723;51.194;5.112;2024-03-08T09:16:34;36.10;;;19.35;;
49828;SDS011;35723;51.194;5.112;2024-03-08T09:18:59;40.13;;;20.50;;
49828;SDS011;35723;51.194;5.112;2024-03-08T09:24:09;41.22;;;21.02;;
49828;SDS011;35723;51.194;5.112;2024-03-08T09:26:35;41.05;;;20.95;;
49828;SDS011;35723;51.194;5.112;2024-03-08T09:29:02;40.97;;;20.90;;
49828;SDS011;35723;51.194;5.112;2024-03-08T09:31:27;37.15;;;20.00;;
49828;SDS011;35723;51.194;5.112;2024-03-08T09:33:53;38.05;;;19.83;;
49828;SDS011;35723;51.194;5.112;2024-03-08T09:36:19;39.97;;;20.60;;
49828;SDS011;35723;51.194;5.112;2024-03-08T09:38:45;38.63;;;20.23;;
49828;SDS011;35723;51.194;5.112;2024-03-08T09:41:10;39.95;;;20.77;;
49828;SDS011;35723;51.194;5.112;2024-03-08T09:43:37;37.42;;;20.27;;
49828;SDS011;35723;51.194;5.112;2024-03-08T09:46:03;42.67;;;20.08;;
49828;SDS011;35723;51.194;5.112;2024-03-08T09:48:31;40.10;;;18.77;;
49828;SDS011;35723;51.194;5.112;2024-03-08T09:50:57;40.55;;;19.00;;
49828;SDS011;35723;51.194;5.112;2024-03-08T09:53:24;39.10;;;19.83;;
49828;SDS011;35723;51.194;5.112;2024-03-08T09:55:49;38.22;;;19.05;;
49828;SDS011;35723;51.194;5.112;2024-03-08T09:58:15;35.70;;;18.77;;
49828;SDS011;35723;51.194;5.112;2024-03-08T10:00:51;38.22;;;19.50;;
49828;SDS011;35723;51.194;5.112;2024-03-08T10:03:16;36.20;;;18.85;;
49828;SDS011;35723;51.194;5.112;2024-03-08T10:05:42;36.40;;;18.90;;
49828;SDS011;35723;51.194;5.112;2024-03-08T10:08:09;35.80;;;18.45;;
49828;SDS011;35723;51.194;5.112;2024-03-08T10:10:36;34.72;;;18.52;;
49828;SDS011;35723;51.194;5.112;2024-03-08T10:13:05;34.38;;;18.00;;
49828;SDS011;35723;51.194;5.112;2024-03-08T10:15:34;33.78;;;18.33;;
49828;SDS011;35723;51.194;5.112;2024-03-08T10:18:00;33.55;;;18.08;;
49828;SDS011;35723;51.194;5.112;2024-03-08T10:20:30;34.70;;;18.45;;
49828;SDS011;35723;51.194;5.112;2024-03-08T10:22:59;33.72;;;18.10;;
49828;SDS011;35723;51.194;5.112;2024-03-08T10:25:26;34.03;;;17.88;;
49828;SDS011;35723;51.194;5.112;2024-03-08T10:27:52;35.58;;;18.05;;
49828;SDS011;35723;51.194;5.112;2024-03-08T10:30:17;34.33;;;18.17;;
49828;SDS011;35723;51.194;5.112;2024-03-08T10:32:45;35.35;;;17.77;;
49828;SDS011;35723;51.194;5.112;2024-03-08T10:35:10;34.03;;;17.70;;
49828;SDS011;35723;51.194;5.112;2024-03-08T10:37:48;33.10;;;17.83;;
49828;SDS011;35723;51.194;5.112;2024-03-08T10:40:24;35.17;;;18.27;;
49828;SDS011;35723;51.194;5.112;2024-03-08T10:42:54;33.65;;;17.40;;
49828;SDS011;35723;51.194;5.112;2024-03-08T10:45:31;36.03;;;18.02;;
49828;SDS011;35723;51.194;5.112;2024-03-08T10:48:43;32.85;;;18.42;;
49828;SDS011;35723;51.194;5.112;2024-03-08T10:50:59;34.80;;;18.27;;
49828;SDS011;35723;51.194;5.112;2024-03-08T10:53:27;36.58;;;18.00;;
49828;SDS011;35723;51.194;5.112;2024-03-08T10:55:57;35.50;;;18.05;;
49828;SDS011;35723;51.194;5.112;2024-03-08T10:58:26;33.65;;;18.08;;
49828;SDS011;35723;51.194;5.112;2024-03-08T11:00:53;32.75;;;18.40;;
49828;SDS011;35723;51.194;5.112;2024-03-08T11:06:29;36.38;;;18.95;;
49828;SDS011;35723;51.194;5.112;2024-03-08T11:09:02;34.25;;;17.88;;
49828;SDS011;35723;51.194;5.112;2024-03-08T11:11:29;34.08;;;18.70;;
49828;SDS011;35723;51.194;5.112;2024-03-08T11:13:57;34.92;;;18.38;;
49828;SDS011;35723;51.194;5.112;2024-03-08T11:19:05;35.15;;;19.08;;
49828;SDS011;35723;51.194;5.112;2024-03-08T11:21:56;34.30;;;17.67;;
49828;SDS011;35723;51.194;5.112;2024-03-08T11:24:26;32.38;;;17.48;;
49828;SDS011;35723;51.194;5.112;2024-03-08T11:26:54;32.90;;;18.50;;
49828;SDS011;35723;51.194;5.112;2024-03-08T11:34:36;31.38;;;17.38;;
49828;SDS011;35723;51.194;5.112;2024-03-08T11:37:05;29.20;;;16.33;;
49828;SDS011;35723;51.194;5.112;2024-03-08T11:39:37;31.63;;;17.50;;
49828;SDS011;35723;51.194;5.112;2024-03-08T11:42:12;30.33;;;17.48;;
49828;SDS011;35723;51.194;5.112;2024-03-08T11:44:39;34.88;;;17.40;;
49828;SDS011;35723;51.194;5.112;2024-03-08T11:47:09;31.10;;;17.05;;
49828;SDS011;35723;51.194;5.112;2024-03-08T11:49:39;29.90;;;16.98;;
49828;SDS011;35723;51.194;5.112;2024-03-08T11:52:11;31.48;;;17.38;;
49828;SDS011;35723;51.194;5.112;2024-03-08T11:54:38;30.15;;;16.33;;
49828;SDS011;35723;51.194;5.112;2024-03-08T11:57:04;32.63;;;17.13;;
49828;SDS011;35723;51.194;5.112;2024-03-08T11:59:31;32.40;;;16.83;;
49828;SDS011;35723;51.194;5.112;2024-03-08T12:02:06;29.42;;;16.55;;
49828;SDS011;35723;51.194;5.112;2024-03-08T12:04:36;31.73;;;16.70;;
49828;SDS011;35723;51.194;5.112;2024-03-08T12:07:02;29.52;;;16.92;;
49828;SDS011;35723;51.194;5.112;2024-03-08T12:09:33;30.48;;;16.98;;
49828;SDS011;35723;51.194;5.112;2024-03-08T12:12:01;30.77;;;17.42;;
49828;SDS011;35723;51.194;5.112;2024-03-08T12:14:30;34.47;;;17.35;;
49828;SDS011;35723;51.194;5.112;2024-03-08T12:16:57;30.48;;;16.40;;
49828;SDS011;35723;51.194;5.112;2024-03-08T12:19:23;31.50;;;16.60;;
49828;SDS011;35723;51.194;5.112;2024-03-08T12:21:49;29.75;;;16.52;;
49828;SDS011;35723;51.194;5.112;2024-03-08T12:24:15;31.13;;;16.70;;
49828;SDS011;35723;51.194;5.112;2024-03-08T12:26:45;29.63;;;16.48;;
49828;SDS011;35723;51.194;5.112;2024-03-08T12:31:51;31.00;;;16.13;;
49828;SDS011;35723;51.194;5.112;2024-03-08T12:34:18;29.83;;;16.52;;
49828;SDS011;35723;51.194;5.112;2024-03-08T12:36:45;31.52;;;16.48;;
49828;SDS011;35723;51.194;5.112;2024-03-08T12:39:13;30.25;;;16.17;;
49828;SDS011;35723;51.194;5.112;2024-03-08T12:41:41;31.33;;;16.17;;
49828;SDS011;35723;51.194;5.112;2024-03-08T12:44:07;29.45;;;15.98;;
49828;SDS011;35723;51.194;5.112;2024-03-08T12:46:36;29.30;;;16.25;;
49828;SDS011;35723;51.194;5.112;2024-03-08T12:49:06;29.23;;;15.52;;
49828;SDS011;35723;51.194;5.112;2024-03-08T12:51:33;27.42;;;15.52;;
49828;SDS011;35723;51.194;5.112;2024-03-08T12:53:58;29.02;;;15.82;;
49828;SDS011;35723;51.194;5.112;2024-03-08T12:56:30;28.73;;;16.00;;
49828;SDS011;35723;51.194;5.112;2024-03-08T12:58:58;30.42;;;16.02;;
49828;SDS011;35723;51.194;5.112;2024-03-08T13:01:25;30.25;;;15.55;;
49828;SDS011;35723;51.194;5.112;2024-03-08T13:03:51;38.97;;;16.00;;
49828;SDS011;35723;51.194;5.112;2024-03-08T13:06:18;32.78;;;15.75;;
49828;SDS011;35723;51.194;5.112;2024-03-08T13:08:49;29.85;;;14.77;;
49828;SDS011;35723;51.194;5.112;2024-03-08T13:11:17;28.45;;;14.73;;
49828;SDS011;35723;51.194;5.112;2024-03-08T13:13:44;26.27;;;14.10;;
49828;SDS011;35723;51.194;5.112;2024-03-08T13:16:10;26.17;;;14.15;;
49828;SDS011;35723;51.194;5.112;2024-03-08T13:18:39;29.00;;;14.85;;
49828;SDS011;35723;51.194;5.112;2024-03-08T13:21:12;26.33;;;14.13;;
49828;SDS011;35723;51.194;5.112;2024-03-08T13:23:40;26.48;;;14.50;;
49828;SDS011;35723;51.194;5.112;2024-03-08T13:26:11;28.27;;;14.60;;
49828;SDS011;35723;51.194;5.112;2024-03-08T13:28:50;30.88;;;14.95;;
49828;SDS011;35723;51.194;5.112;2024-03-08T13:31:21;30.05;;;15.30;;
49828;SDS011;35723;51.194;5.112;2024-03-08T13:33:48;27.05;;;14.38;;
49828;SDS011;35723;51.194;5.112;2024-03-08T13:36:14;25.17;;;14.18;;
49828;SDS011;35723;51.194;5.112;2024-03-08T13:38:43;26.80;;;14.73;;
49828;SDS011;35723;51.194;5.112;2024-03-08T13:41:10;30.52;;;15.18;;
49828;SDS011;35723;51.194;5.112;2024-03-08T13:43:39;25.65;;;14.27;;
49828;SDS011;35723;51.194;5.112;2024-03-08T13:46:11;28.67;;;14.93;;
49828;SDS011;35723;51.194;5.112;2024-03-08T13:48:37;26.30;;;14.35;;
49828;SDS011;35723;51.194;5.112;2024-03-08T13:51:04;26.63;;;13.88;;
49828;SDS011;35723;51.194;5.112;2024-03-08T13:53:31;25.58;;;13.77;;
49828;SDS011;35723;51.194;5.112;2024-03-08T13:55:58;26.83;;;14.43;;
49828;SDS011;35723;51.194;5.112;2024-03-08T13:58:25;26.08;;;14.70;;
49828;SDS011;35723;51.194;5.112;2024-03-08T14:00:51;28.00;;;14.60;;
49828;SDS011;35723;51.194;5.112;2024-03-08T14:03:17;25.33;;;14.23;;
49828;SDS011;35723;51.194;5.112;2024-03-08T14:05:43;26.58;;;14.30;;
49828;SDS011;35723;51.194;5.112;2024-03-08T14:08:10;28.75;;;14.63;;
49828;SDS011;35723;51.194;5.112;2024-03-08T14:10:37;26.73;;;13.73;;
49828;SDS011;35723;51.194;5.112;2024-03-08T14:13:03;27.02;;;14.43;;
49828;SDS011;35723;51.194;5.112;2024-03-08T14:15:33;27.33;;;14.50;;
49828;SDS011;35723;51.194;5.112;2024-03-08T14:18:06;28.30;;;13.45;;
49828;SDS011;35723;51.194;5.112;2024-03-08T14:20:32;34.65;;;14.23;;
49828;SDS011;35723;51.194;5.112;2024-03-08T14:22:58;32.35;;;13.43;;
49828;SDS011;35723;51.194;5.112;2024-03-08T14:25:24;25.35;;;12.88;;
49828;SDS011;35723;51.194;5.112;2024-03-08T14:27:50;27.10;;;13.68;;
49828;SDS011;35723;51.194;5.112;2024-03-08T14:30:18;27.00;;;14.15;;
49828;SDS011;35723;51.194;5.112;2024-03-08T14:33:07;29.23;;;13.95;;
49828;SDS011;35723;51.194;5.112;2024-03-08T14:35:36;29.20;;;14.15;;
49828;SDS011;35723;51.194;5.112;2024-03-08T14:38:02;27.60;;;13.60;;
49828;SDS011;35723;51.194;5.112;2024-03-08T14:40:28;29.60;;;14.38;;
49828;SDS011;35723;51.194;5.112;2024-03-08T14:42:55;25.70;;;13.95;;
49828;SDS011;35723;51.194;5.112;2024-03-08T14:45:21;25.70;;;14.02;;
49828;SDS011;35723;51.194;5.112;2024-03-08T14:47:49;28.83;;;14.32;;
49828;SDS011;35723;51.194;5.112;2024-03-08T14:50:19;29.15;;;13.73;;
49828;SDS011;35723;51.194;5.112;2024-03-08T14:52:46;26.17;;;13.88;;
49828;SDS011;35723;51.194;5.112;2024-03-08T14:55:15;27.73;;;14.45;;